createdAt,value
2023-04-25T00:00:16.481Z,6.37
2023-04-25T00:03:19.635Z,6.10
2023-04-25T00:06:21.633Z,5.40
2023-04-25T00:09:23.599Z,5.63
2023-04-25T00:12:25.376Z,5.77
2023-04-25T00:15:27.042Z,5.23
2023-04-25T00:18:31.356Z,6.23
2023-04-25T00:21:33.455Z,6.63
2023-04-25T00:24:35.035Z,5.50
2023-04-25T00:27:36.663Z,6.63
2023-04-25T00:30:38.572Z,6.20
2023-04-25T00:33:40.193Z,5.87
2023-04-25T00:36:41.882Z,6.50
2023-04-25T00:39:43.491Z,6.87
2023-04-25T00:42:46.147Z,6.70
2023-04-25T00:45:48.812Z,6.00
2023-04-25T00:48:50.611Z,6.63
2023-04-25T00:51:52.207Z,6.50
2023-04-25T00:54:53.843Z,6.67
2023-04-25T00:57:55.640Z,7.33
2023-04-25T01:00:58.445Z,6.73
2023-04-25T01:04:01.831Z,6.23
2023-04-25T01:07:03.724Z,7.17
2023-04-25T01:10:07.112Z,6.70
2023-04-25T01:13:09.088Z,7.27
2023-04-25T01:16:10.997Z,6.70
2023-04-25T01:19:13.200Z,7.20
2023-04-25T01:22:15.473Z,7.90
2023-04-25T01:25:17.814Z,7.13
2023-04-25T01:28:19.668Z,6.20
2023-04-25T01:31:21.645Z,6.87
2023-04-25T01:34:23.449Z,7.00
2023-04-25T01:37:25.206Z,6.70
2023-04-25T01:40:28.735Z,5.93
2023-04-25T01:43:30.583Z,7.13
2023-04-25T01:46:33.570Z,6.70
2023-04-25T01:49:35.380Z,6.53
2023-04-25T01:52:37.112Z,6.90
2023-04-25T01:55:38.859Z,6.67
2023-04-25T01:58:40.528Z,5.90
2023-04-25T02:01:42.224Z,6.33
2023-04-25T02:04:44.005Z,6.73
2023-04-25T02:07:45.795Z,6.93
2023-04-25T02:10:47.414Z,7.17
2023-04-25T02:13:49.177Z,6.40
2023-04-25T02:16:52.267Z,6.37
2023-04-25T02:19:54.074Z,5.73
2023-04-25T02:22:55.709Z,6.27
2023-04-25T02:25:58.223Z,6.60
2023-04-25T02:28:59.981Z,6.00
2023-04-25T02:32:01.587Z,7.30
2023-04-25T02:35:04.843Z,7.00
2023-04-25T02:38:06.587Z,6.57
2023-04-25T02:41:08.253Z,6.10
2023-04-25T02:44:09.926Z,6.63
2023-04-25T02:47:11.577Z,5.60
2023-04-25T02:50:13.257Z,6.53
2023-04-25T02:53:14.948Z,6.67
2023-04-25T02:56:16.621Z,6.53
2023-04-25T02:59:18.260Z,6.03
2023-04-25T03:02:19.896Z,6.53
2023-04-25T03:05:21.570Z,6.70
2023-04-25T03:08:23.737Z,7.77
2023-04-25T03:11:26.829Z,7.40
2023-04-25T03:14:28.475Z,7.23
2023-04-25T03:17:30.127Z,7.40
2023-04-25T03:20:31.872Z,7.33
2023-04-25T03:23:33.515Z,6.90
2023-04-25T03:26:35.214Z,6.70
2023-04-25T03:29:37.092Z,7.57
2023-04-25T03:32:38.731Z,7.40
2023-04-25T03:35:40.453Z,7.00
2023-04-25T03:38:44.807Z,7.20
2023-04-25T03:41:46.474Z,6.90
2023-04-25T03:44:48.061Z,6.90
2023-04-25T03:47:49.804Z,7.20
2023-04-25T03:50:51.420Z,7.00
2023-04-25T03:53:53.622Z,7.20
2023-04-25T03:56:55.330Z,7.33
2023-04-25T03:59:56.955Z,7.40
2023-04-25T04:02:58.781Z,7.93
2023-04-25T04:06:00.861Z,7.10
2023-04-25T04:09:02.603Z,7.60
2023-04-25T04:12:04.414Z,7.40
2023-04-25T04:15:06.880Z,8.33
2023-04-25T04:18:08.626Z,7.27
2023-04-25T04:21:10.460Z,8.40
2023-04-25T04:24:13.114Z,7.70
2023-04-25T04:27:14.765Z,7.07
2023-04-25T04:30:16.700Z,8.00
2023-04-25T04:33:20.438Z,7.63
2023-04-25T04:36:22.868Z,8.23
2023-04-25T04:39:24.471Z,8.00
2023-04-25T04:42:26.425Z,8.50
2023-04-25T04:45:28.546Z,8.43
2023-04-25T04:48:33.557Z,9.00
2023-04-25T04:51:36.191Z,8.30
2023-04-25T04:54:38.119Z,9.97
2023-04-25T04:57:40.443Z,8.80
2023-04-25T05:00:42.138Z,9.10
2023-04-25T05:03:44.020Z,8.73
2023-04-25T05:06:48.216Z,9.17
2023-04-25T05:09:50.493Z,9.57
2023-04-25T05:12:52.134Z,9.97
2023-04-25T05:15:53.798Z,8.80
2023-04-25T05:18:55.462Z,8.97
2023-04-25T05:21:57.068Z,8.83
2023-04-25T05:24:58.780Z,7.70
2023-04-25T05:28:00.939Z,8.53
2023-04-25T05:31:02.666Z,7.53
2023-04-25T05:34:04.461Z,7.23
2023-04-25T05:37:06.112Z,6.77
2023-04-25T05:40:09.792Z,7.43
2023-04-25T05:43:11.371Z,7.93
2023-04-25T05:46:13.146Z,7.93
2023-04-25T05:49:16.042Z,8.50
2023-04-25T05:52:19.145Z,8.03
2023-04-25T05:55:21.005Z,8.47
2023-04-25T05:58:23.009Z,7.77
2023-04-25T06:01:24.615Z,8.10
2023-04-25T06:04:26.750Z,8.57
2023-04-25T06:07:28.849Z,8.47
2023-04-25T06:10:30.512Z,9.00
2023-04-25T06:13:32.084Z,8.40
2023-04-25T06:16:33.789Z,8.10
2023-04-25T06:19:36.945Z,8.50
2023-04-25T06:22:38.560Z,7.57
2023-04-25T06:25:40.278Z,7.60
2023-04-25T06:28:41.974Z,7.40
2023-04-25T06:31:43.649Z,7.43
2023-04-25T06:34:45.456Z,7.30
2023-04-25T06:37:47.423Z,9.80
2023-04-25T06:40:48.997Z,7.70
2023-04-25T06:43:50.753Z,8.00
2023-04-25T06:46:52.451Z,8.47
2023-04-25T06:49:54.046Z,8.00
2023-04-25T06:52:55.835Z,7.47
2023-04-25T06:55:57.429Z,7.60
2023-04-25T06:58:59.333Z,7.77
2023-04-25T07:02:01.140Z,7.07
2023-04-25T07:05:05.003Z,5.87
2023-04-25T07:08:06.630Z,7.00
2023-04-25T07:11:08.273Z,5.60
2023-04-25T07:14:09.845Z,6.70
2023-04-25T07:17:11.608Z,6.57
2023-04-25T07:20:13.521Z,6.07
2023-04-25T07:23:15.205Z,6.17
2023-04-25T07:26:16.804Z,6.17
2023-04-25T07:29:18.409Z,6.20
2023-04-25T07:32:20.143Z,6.30
2023-04-25T07:35:21.832Z,6.73
2023-04-25T07:38:23.628Z,6.10
2023-04-25T07:41:25.236Z,6.03
2023-04-25T07:44:26.893Z,6.70
2023-04-25T07:47:28.633Z,7.73
2023-04-25T07:50:30.524Z,6.00
2023-04-25T07:53:33.158Z,6.30
2023-04-25T07:56:48.935Z,6.73
2023-04-25T07:59:54.102Z,6.57
2023-04-25T08:02:55.819Z,5.47
2023-04-25T08:05:57.682Z,6.27
2023-04-25T08:08:59.657Z,6.20
2023-04-25T08:12:02.116Z,6.83
2023-04-25T08:15:04.713Z,6.20
2023-04-25T08:18:06.357Z,6.83
2023-04-25T08:21:09.938Z,5.43
2023-04-25T08:24:11.886Z,6.03
2023-04-25T08:27:13.580Z,4.80
2023-04-25T08:30:15.650Z,4.87
2023-04-25T08:33:17.412Z,5.43
2023-04-25T08:36:37.578Z,5.03
2023-04-25T08:39:40.691Z,4.63
2023-04-25T08:42:43.106Z,4.63
2023-04-25T08:45:45.771Z,4.73
2023-04-25T08:48:47.425Z,3.67
2023-04-25T08:51:51.807Z,4.33
2023-04-25T08:54:55.224Z,4.40
2023-04-25T08:58:01.059Z,3.90
2023-04-25T09:01:03.153Z,5.23
2023-04-25T09:04:05.419Z,4.10
2023-04-25T09:07:07.359Z,4.97
2023-04-25T09:10:09.865Z,4.27
2023-04-25T09:13:14.467Z,3.70
2023-04-25T09:16:18.403Z,3.37
2023-04-25T09:19:38.132Z,3.40
2023-04-25T09:22:41.257Z,3.13
2023-04-25T09:25:44.336Z,3.13
2023-04-25T09:28:46.888Z,3.20
2023-04-25T09:31:48.532Z,3.20
2023-04-25T09:34:55.659Z,3.03
2023-04-25T09:37:57.378Z,3.73
2023-04-25T09:40:59.337Z,4.00
2023-04-25T09:44:01.526Z,3.13
2023-04-25T09:47:04.079Z,3.43
2023-04-25T09:50:18.417Z,3.77
2023-04-25T09:53:20.082Z,3.60
2023-04-25T09:56:23.136Z,3.57
2023-04-25T09:59:24.836Z,3.70
2023-04-25T10:02:28.205Z,3.03
2023-04-25T10:05:32.846Z,3.60
2023-04-25T10:08:37.054Z,4.00
2023-04-25T10:11:40.488Z,4.33
2023-04-25T10:14:43.359Z,4.07
2023-04-25T10:17:46.314Z,4.23
2023-04-25T10:20:47.972Z,4.17
2023-04-25T10:23:50.738Z,4.53
2023-04-25T10:26:56.997Z,4.03
2023-04-25T10:30:09.904Z,3.97
2023-04-25T10:33:19.508Z,4.30
2023-04-25T10:36:23.423Z,5.00
2023-04-25T10:39:27.655Z,4.50
2023-04-25T10:42:30.108Z,4.53
2023-04-25T10:45:52.208Z,5.10
2023-04-25T10:49:01.702Z,4.87
2023-04-25T10:52:13.237Z,4.93
2023-04-25T10:55:14.848Z,4.70
2023-04-25T10:58:23.522Z,6.10
2023-04-25T11:01:26.390Z,5.03
2023-04-25T11:04:34.840Z,4.80
2023-04-25T11:07:37.655Z,5.30
2023-04-25T11:10:41.179Z,5.30
2023-04-25T11:13:42.766Z,4.87
2023-04-25T11:16:44.517Z,5.20
2023-04-25T11:19:50.023Z,5.57
2023-04-25T11:22:52.877Z,5.03
2023-04-25T11:25:54.995Z,5.13
2023-04-25T11:29:00.956Z,6.17
2023-04-25T11:32:03.284Z,5.43
2023-04-25T11:35:07.022Z,6.00
2023-04-25T11:38:08.764Z,5.97
2023-04-25T11:41:10.383Z,5.80
2023-04-25T11:44:12.078Z,5.80
2023-04-25T11:47:13.732Z,5.60
2023-04-25T11:50:15.610Z,6.00
2023-04-25T11:53:19.432Z,5.37
2023-04-25T11:56:21.808Z,5.57
2023-04-25T11:59:27.481Z,6.40
2023-04-25T12:02:29.342Z,6.60
2023-04-25T12:05:34.949Z,5.20
2023-04-25T12:08:37.033Z,6.40
2023-04-25T12:11:55.338Z,5.50
2023-04-25T12:14:57.049Z,6.50
2023-04-25T12:17:58.736Z,5.03
2023-04-25T12:21:01.017Z,5.00
2023-04-25T12:24:13.202Z,5.10
2023-04-25T12:27:17.299Z,5.50
2023-04-25T12:30:19.520Z,6.50
2023-04-25T12:33:21.639Z,5.47
2023-04-25T12:36:23.771Z,5.40
2023-04-25T12:39:28.957Z,4.70
2023-04-25T12:42:30.585Z,5.87
2023-04-25T12:45:32.416Z,5.63
2023-04-25T12:48:34.019Z,5.87
2023-04-25T12:51:38.662Z,5.77
2023-04-25T12:54:40.309Z,5.00
2023-04-25T12:57:42.010Z,4.20
2023-04-25T13:00:44.168Z,5.10
2023-04-25T13:03:46.196Z,4.20
2023-04-25T13:06:48.167Z,5.07
2023-04-25T13:09:49.779Z,4.80
2023-04-25T13:12:51.583Z,4.60
2023-04-25T13:15:53.202Z,4.53
2023-04-25T13:18:54.985Z,5.07
2023-04-25T13:21:56.590Z,4.97
2023-04-25T13:24:58.374Z,4.80
2023-04-25T13:27:59.972Z,4.63
2023-04-25T13:31:01.781Z,4.17
2023-04-25T13:34:03.492Z,5.17
2023-04-25T13:37:05.076Z,6.17
2023-04-25T13:40:10.712Z,5.40
2023-04-25T13:43:12.404Z,5.63
2023-04-25T13:46:30.066Z,5.03
2023-04-25T13:49:36.473Z,4.33
2023-04-25T13:52:38.058Z,4.17
2023-04-25T13:55:40.018Z,3.93
2023-04-25T13:58:41.634Z,4.13
2023-04-25T14:01:43.317Z,4.63
2023-04-25T14:04:45.034Z,4.10
2023-04-25T14:07:46.655Z,4.30
2023-04-25T14:10:48.280Z,3.77
2023-04-25T14:13:50.293Z,4.40
2023-04-25T14:16:54.808Z,4.27
2023-04-25T14:19:56.598Z,4.30
2023-04-25T14:22:59.367Z,4.53
2023-04-25T14:26:01.051Z,4.23
2023-04-25T14:29:02.953Z,4.20
2023-04-25T14:32:06.128Z,4.30
2023-04-25T14:35:08.178Z,4.10
2023-04-25T14:38:09.854Z,3.27
2023-04-25T14:41:11.793Z,4.73
2023-04-25T14:44:13.400Z,3.70
2023-04-25T14:47:15.347Z,3.73
2023-04-25T14:50:16.983Z,4.20
2023-04-25T14:53:19.096Z,4.13
2023-04-25T14:56:20.758Z,3.50
2023-04-25T14:59:22.592Z,3.90
2023-04-25T15:02:25.322Z,3.40
2023-04-25T15:05:27.125Z,3.40
2023-04-25T15:08:28.693Z,4.63
2023-04-25T15:11:30.811Z,4.37
2023-04-25T15:14:32.470Z,4.20
2023-04-25T15:17:34.033Z,4.30
2023-04-25T15:20:35.810Z,3.77
2023-04-25T15:23:37.462Z,4.40
2023-04-25T15:26:39.042Z,4.23
2023-04-25T15:29:41.125Z,3.80
2023-04-25T15:32:47.113Z,3.60
2023-04-25T15:35:48.762Z,4.07
2023-04-25T15:38:50.723Z,3.67
2023-04-25T15:41:52.311Z,4.00
2023-04-25T15:44:54.196Z,3.80
2023-04-25T15:47:57.203Z,3.90
2023-04-25T15:50:59.515Z,4.10
2023-04-25T15:54:02.540Z,3.90
2023-04-25T15:57:04.320Z,3.70
2023-04-25T16:00:11.286Z,4.37
2023-04-25T16:03:13.128Z,4.30
2023-04-25T16:06:15.472Z,4.00
2023-04-25T16:09:18.513Z,4.10
2023-04-25T16:12:20.293Z,3.90
2023-04-25T16:15:22.028Z,3.60
2023-04-25T16:18:23.823Z,4.40
2023-04-25T16:21:27.139Z,3.57
2023-04-25T16:24:28.784Z,3.97
2023-04-25T16:27:31.262Z,3.40
2023-04-25T16:30:34.395Z,3.90
2023-04-25T16:33:36.148Z,4.40
2023-04-25T16:36:37.774Z,4.00
2023-04-25T16:39:39.393Z,3.50
2023-04-25T16:42:40.992Z,3.90
2023-04-25T16:45:43.096Z,3.83
2023-04-25T16:48:45.105Z,4.17
2023-04-25T16:51:46.960Z,3.80
2023-04-25T16:54:48.718Z,3.67
2023-04-25T16:57:50.698Z,3.77
2023-04-25T17:00:52.374Z,3.80
2023-04-25T17:03:54.247Z,3.87
2023-04-25T17:06:55.925Z,3.40
2023-04-25T17:09:57.568Z,3.60
2023-04-25T17:12:59.194Z,3.30
2023-04-25T17:16:01.945Z,3.43
2023-04-25T17:19:07.524Z,3.53
2023-04-25T17:22:09.443Z,3.80
2023-04-25T17:25:11.260Z,4.20
2023-04-25T17:28:13.022Z,3.57
2023-04-25T17:31:18.051Z,3.70
2023-04-25T17:34:19.775Z,4.63
2023-04-25T17:37:22.933Z,3.40
2023-04-25T17:40:25.781Z,3.70
2023-04-25T17:43:27.847Z,3.17
2023-04-25T17:46:29.674Z,3.20
2023-04-25T17:49:33.358Z,3.40
2023-04-25T17:52:35.348Z,3.67
2023-04-25T17:55:36.987Z,2.90
2023-04-25T17:58:38.642Z,3.40
2023-04-25T18:01:43.759Z,3.23
2023-04-25T18:04:47.448Z,3.10
2023-04-25T18:07:49.185Z,3.17
2023-04-25T18:10:51.276Z,2.40
2023-04-25T18:13:53.156Z,3.30
2023-04-25T18:16:55.421Z,3.00
2023-04-25T18:19:57.049Z,2.67
2023-04-25T18:22:59.009Z,2.57
2023-04-25T18:26:01.272Z,3.30
2023-04-25T18:29:03.596Z,2.73
2023-04-25T18:32:05.734Z,2.60
2023-04-25T18:35:09.933Z,2.90
2023-04-25T18:38:12.635Z,3.63
2023-04-25T18:44:22.512Z,3.50
2023-04-25T18:47:24.606Z,2.90
2023-04-25T18:50:28.477Z,3.07
2023-04-25T18:53:30.084Z,3.43
2023-04-25T18:56:32.872Z,2.50
2023-04-25T18:59:34.486Z,3.03
2023-04-25T19:02:37.150Z,2.93
2023-04-25T19:05:38.900Z,2.90
2023-04-25T19:08:40.617Z,3.60
2023-04-25T19:11:42.385Z,3.30
2023-04-25T19:14:44.471Z,3.97
2023-04-25T19:17:46.765Z,2.93
2023-04-25T19:20:48.605Z,3.37
2023-04-25T19:23:50.545Z,3.70
2023-04-25T19:26:52.256Z,2.87
2023-04-25T19:29:58.193Z,4.00
2023-04-25T19:32:59.903Z,3.97
2023-04-25T19:36:01.515Z,3.90
2023-04-25T19:39:03.892Z,3.67
2023-04-25T19:42:06.673Z,3.83
2023-04-25T19:45:08.977Z,3.10
2023-04-25T19:48:11.735Z,3.87
2023-04-25T19:51:14.025Z,3.67
2023-04-25T19:54:15.597Z,4.20
2023-04-25T19:57:17.489Z,3.63
2023-04-25T20:00:20.213Z,3.70
2023-04-25T20:03:22.080Z,4.13
2023-04-25T20:06:23.844Z,3.40
2023-04-25T20:09:26.135Z,3.40
2023-04-25T20:12:28.000Z,3.20
2023-04-25T20:15:29.620Z,3.70
2023-04-25T20:18:31.235Z,3.27
2023-04-25T20:21:34.048Z,4.00
2023-04-25T20:24:35.900Z,3.27
2023-04-25T20:27:40.494Z,3.53
2023-04-25T20:30:42.468Z,3.57
2023-04-25T20:33:45.546Z,4.10
2023-04-25T20:36:48.063Z,3.80
2023-04-25T20:39:49.661Z,4.30
2023-04-25T20:42:52.233Z,3.53
2023-04-25T20:45:54.813Z,3.13
2023-04-25T20:48:57.080Z,3.33
2023-04-25T20:51:59.099Z,5.03
2023-04-25T20:55:00.859Z,3.47
2023-04-25T20:58:03.265Z,3.80
2023-04-25T21:01:06.349Z,3.73
2023-04-25T21:04:09.014Z,3.77
2023-04-25T21:07:12.732Z,3.13
2023-04-25T21:10:15.570Z,3.50
2023-04-25T21:13:17.292Z,3.47
2023-04-25T21:16:19.074Z,3.27
2023-04-25T21:19:20.753Z,3.27
2023-04-25T21:22:22.447Z,3.87
2023-04-25T21:25:29.918Z,3.43
2023-04-25T21:28:32.086Z,3.57
2023-04-25T21:31:34.188Z,3.40
2023-04-25T21:34:35.932Z,4.20
2023-04-25T21:37:38.120Z,3.50
2023-04-25T21:40:40.334Z,3.10
2023-04-25T21:43:42.214Z,3.83
2023-04-25T21:46:44.085Z,5.10
2023-04-25T21:49:45.883Z,4.23
2023-04-25T21:52:48.371Z,4.57
2023-04-25T21:55:49.964Z,5.53
2023-04-25T21:58:51.863Z,4.10
2023-04-25T22:01:53.760Z,4.10
2023-04-25T22:04:56.829Z,4.27
2023-04-25T22:07:58.533Z,4.53
2023-04-25T22:11:02.748Z,4.27
2023-04-25T22:14:04.906Z,3.87
2023-04-25T22:17:06.540Z,4.03
2023-04-25T22:20:13.578Z,3.67
2023-04-25T22:23:15.295Z,4.07
2023-04-25T22:26:16.881Z,4.30
2023-04-25T22:29:18.484Z,5.10
2023-04-25T22:32:20.119Z,5.20
2023-04-25T22:35:21.734Z,5.07
2023-04-25T22:38:23.410Z,4.20
2023-04-25T22:41:25.090Z,4.20
2023-04-25T22:44:27.493Z,4.80
2023-04-25T22:47:29.103Z,4.30
2023-04-25T22:50:30.959Z,4.40
2023-04-25T22:53:34.158Z,4.67
2023-04-25T22:56:35.799Z,4.10
2023-04-25T22:59:38.109Z,3.87
2023-04-25T23:02:39.873Z,4.13
2023-04-25T23:05:41.517Z,4.40
2023-04-25T23:08:43.720Z,3.80
2023-04-25T23:11:45.873Z,4.07
2023-04-25T23:14:51.835Z,4.20
2023-04-25T23:17:53.865Z,3.87
2023-04-25T23:20:56.270Z,3.90
2023-04-25T23:23:57.855Z,3.90
2023-04-25T23:26:59.464Z,4.43
2023-04-25T23:30:01.033Z,4.00
2023-04-25T23:33:03.934Z,5.10
2023-04-25T23:36:05.983Z,4.90
2023-04-25T23:39:09.908Z,4.03
2023-04-25T23:42:11.483Z,3.90
2023-04-25T23:45:14.314Z,4.70
2023-04-25T23:48:16.238Z,4.63
2023-04-25T23:51:17.851Z,3.80
2023-04-25T23:54:19.556Z,4.53
2023-04-25T23:57:21.280Z,4.83
